createdAt,value
2019-05-14T00:00:38.278Z,1028.26
2019-05-14T00:01:38.268Z,1028.25
2019-05-14T00:02:38.256Z,1028.26
2019-05-14T00:03:38.244Z,1028.24
2019-05-14T00:04:38.262Z,1028.23
2019-05-14T00:05:38.222Z,1028.21
2019-05-14T00:06:38.212Z,1028.24
2019-05-14T00:07:38.200Z,1028.25
2019-05-14T00:08:38.191Z,1028.18
2019-05-14T00:09:38.187Z,1028.30
2019-05-14T00:10:38.196Z,1028.29
2019-05-14T00:11:38.163Z,1028.25
2019-05-14T00:12:38.144Z,1028.24
2019-05-14T00:13:38.136Z,1028.22
2019-05-14T00:14:40.167Z,1028.25
2019-05-14T00:15:41.323Z,1028.26
2019-05-14T00:16:38.100Z,1028.24
2019-05-14T00:17:38.088Z,1028.24
2019-05-14T00:18:38.079Z,1028.25
2019-05-14T00:19:38.078Z,1028.25
2019-05-14T00:20:38.083Z,1028.24
2019-05-14T00:21:38.044Z,1028.25
2019-05-14T00:22:38.031Z,1028.21
2019-05-14T00:23:38.021Z,1028.24
2019-05-14T00:24:38.010Z,1028.23
2019-05-14T00:25:38.024Z,1028.18
2019-05-14T00:26:37.986Z,1028.18
2019-05-14T00:27:37.982Z,1028.20
2019-05-14T00:28:37.967Z,1028.15
2019-05-14T00:29:37.953Z,1028.18
2019-05-14T00:30:43.068Z,1028.16
2019-05-14T00:31:37.929Z,1028.12
2019-05-14T00:32:37.918Z,1028.09
2019-05-14T00:33:37.907Z,1028.11
2019-05-14T00:34:37.897Z,1028.11
2019-05-14T00:35:37.911Z,1028.08
2019-05-14T00:36:37.874Z,1028.08
2019-05-14T00:37:37.865Z,1028.14
2019-05-14T00:38:37.853Z,1028.12
2019-05-14T00:39:37.839Z,1028.11
2019-05-14T00:40:37.857Z,1028.08
2019-05-14T00:41:37.819Z,1028.04
2019-05-14T00:42:37.810Z,1028.06
2019-05-14T00:43:37.797Z,1028.02
2019-05-14T00:44:50.005Z,1028.06
2019-05-14T00:45:38.797Z,1027.98
2019-05-14T00:46:37.763Z,1027.99
2019-05-14T00:47:37.752Z,1028.01
2019-05-14T00:48:37.739Z,1028.04
2019-05-14T00:49:37.727Z,1028.02
2019-05-14T00:50:37.720Z,1028.07
2019-05-14T00:51:37.730Z,1028.06
2019-05-14T00:52:37.696Z,1028.06
2019-05-14T00:53:37.681Z,1028.05
2019-05-14T00:54:37.672Z,1028.12
2019-05-14T00:55:37.662Z,1028.07
2019-05-14T00:56:37.684Z,1028.08
2019-05-14T00:57:37.637Z,1028.07
2019-05-14T00:58:37.631Z,1028.05
2019-05-14T00:59:37.613Z,1028.06
2019-05-14T01:00:37.606Z,1028.09
2019-05-14T01:01:37.616Z,1028.05
2019-05-14T01:02:37.579Z,1028.03
2019-05-14T01:03:37.569Z,1028.05
2019-05-14T01:04:37.555Z,1028.03
2019-05-14T01:05:37.544Z,1028.08
2019-05-14T01:06:37.560Z,1028.02
2019-05-14T01:07:37.521Z,1028.02
2019-05-14T01:08:37.510Z,1028.03
2019-05-14T01:09:37.500Z,1028.03
2019-05-14T01:10:37.486Z,1028.03
2019-05-14T01:11:37.502Z,1028.08
2019-05-14T01:12:37.464Z,1028.02
2019-05-14T01:13:37.452Z,1028.06
2019-05-14T01:14:37.441Z,1028.06
2019-05-14T01:15:37.435Z,1028.05
2019-05-14T01:16:37.443Z,1028.06
2019-05-14T01:17:37.409Z,1028.01
2019-05-14T01:18:37.395Z,1028.02
2019-05-14T01:19:37.382Z,1028.08
2019-05-14T01:20:37.371Z,1028.09
2019-05-14T01:21:37.386Z,1028.09
2019-05-14T01:22:37.347Z,1028.07
2019-05-14T01:23:37.365Z,1028.07
2019-05-14T01:24:37.328Z,1028.09
2019-05-14T01:25:37.313Z,1028.11
2019-05-14T01:26:37.334Z,1028.13
2019-05-14T01:27:37.293Z,1028.10
2019-05-14T01:28:37.280Z,1028.12
2019-05-14T01:29:37.269Z,1028.16
2019-05-14T01:30:37.256Z,1028.18
2019-05-14T01:31:37.270Z,1028.16
2019-05-14T01:32:37.233Z,1028.15
2019-05-14T01:33:37.222Z,1028.16
2019-05-14T01:34:37.215Z,1028.12
2019-05-14T01:35:37.199Z,1028.12
2019-05-14T01:36:37.189Z,1028.11
2019-05-14T01:37:37.200Z,1028.18
2019-05-14T01:38:37.163Z,1028.16
2019-05-14T01:39:37.154Z,1028.13
2019-05-14T01:40:37.145Z,1028.19
2019-05-14T01:41:37.133Z,1028.16
2019-05-14T01:42:37.144Z,1028.16
2019-05-14T01:43:37.110Z,1028.15
2019-05-14T01:44:37.097Z,1028.20
2019-05-14T01:45:37.089Z,1028.21
2019-05-14T01:46:37.078Z,1028.20
2019-05-14T01:47:37.091Z,1028.25
2019-05-14T01:48:37.052Z,1028.22
2019-05-14T01:49:37.041Z,1028.22
2019-05-14T01:50:37.030Z,1028.17
2019-05-14T01:51:37.022Z,1028.17
2019-05-14T01:52:37.032Z,1028.16
2019-05-14T01:53:36.998Z,1028.15
2019-05-14T01:54:36.983Z,1028.14
2019-05-14T01:55:36.973Z,1028.14
2019-05-14T01:56:36.961Z,1028.11
2019-05-14T01:57:36.975Z,1028.12
2019-05-14T01:58:36.941Z,1028.10
2019-05-14T01:59:36.927Z,1028.08
2019-05-14T02:00:36.916Z,1028.08
2019-05-14T02:01:36.903Z,1028.09
2019-05-14T02:02:36.916Z,1028.09
2019-05-14T02:03:36.882Z,1028.08
2019-05-14T02:04:36.874Z,1028.11
2019-05-14T02:05:36.865Z,1028.14
2019-05-14T02:06:36.850Z,1028.08
2019-05-14T02:07:36.861Z,1028.08
2019-05-14T02:08:36.824Z,1028.08
2019-05-14T02:09:36.815Z,1028.01
2019-05-14T02:10:36.804Z,1028.05
2019-05-14T02:11:36.791Z,1028.01
2019-05-14T02:12:36.809Z,1028.01
2019-05-14T02:13:36.769Z,1027.94
2019-05-14T02:14:36.761Z,1028.00
2019-05-14T02:15:39.947Z,1028.01
2019-05-14T02:16:37.733Z,1027.97
2019-05-14T02:17:36.726Z,1027.92
2019-05-14T02:18:36.738Z,1027.94
2019-05-14T02:19:36.702Z,1027.91
2019-05-14T02:20:36.690Z,1027.92
2019-05-14T02:21:36.685Z,1027.92
2019-05-14T02:22:36.671Z,1028.02
2019-05-14T02:23:36.680Z,1027.91
2019-05-14T02:24:36.646Z,1027.94
2019-05-14T02:25:36.636Z,1028.00
2019-05-14T02:26:36.629Z,1027.99
2019-05-14T02:27:36.610Z,1027.97
2019-05-14T02:28:36.631Z,1027.98
2019-05-14T02:29:36.616Z,1027.97
2019-05-14T02:30:48.119Z,1027.92
2019-05-14T02:31:39.309Z,1027.90
2019-05-14T02:32:40.034Z,1027.89
2019-05-14T02:33:39.473Z,1027.89
2019-05-14T02:34:39.916Z,1027.86
2019-05-14T02:35:39.494Z,1027.90
2019-05-14T02:36:39.728Z,1027.88
2019-05-14T02:37:39.286Z,1027.84
2019-05-14T02:38:38.929Z,1027.83
2019-05-14T02:39:36.516Z,1027.85
2019-05-14T02:40:40.134Z,1027.87
2019-05-14T02:41:39.114Z,1027.81
2019-05-14T02:42:39.700Z,1027.82
2019-05-14T02:43:36.462Z,1027.82
2019-05-14T02:44:40.295Z,1027.80
2019-05-14T02:45:40.948Z,1027.83
2019-05-14T02:46:40.517Z,1027.79
2019-05-14T02:47:39.633Z,1027.83
2019-05-14T02:48:39.920Z,1027.83
2019-05-14T02:49:39.351Z,1027.86
2019-05-14T02:50:39.386Z,1027.84
2019-05-14T02:51:39.021Z,1027.84
2019-05-14T02:52:39.879Z,1027.79
2019-05-14T02:53:38.859Z,1027.78
2019-05-14T02:54:36.314Z,1027.68
2019-05-14T02:55:38.855Z,1027.72
2019-05-14T02:56:36.285Z,1027.71
2019-05-14T02:57:39.185Z,1027.69
2019-05-14T02:58:36.269Z,1027.68
2019-05-14T02:59:39.067Z,1027.71
2019-05-14T03:00:36.245Z,1027.68
2019-05-14T03:01:39.989Z,1027.68
2019-05-14T03:02:36.222Z,1027.71
2019-05-14T03:03:36.209Z,1027.69
2019-05-14T03:04:39.308Z,1027.69
2019-05-14T03:05:36.188Z,1027.70
2019-05-14T03:06:39.273Z,1027.73
2019-05-14T03:07:39.394Z,1027.68
2019-05-14T03:08:38.867Z,1027.64
2019-05-14T03:09:39.943Z,1027.68
2019-05-14T03:10:36.130Z,1027.66
2019-05-14T03:11:40.037Z,1027.73
2019-05-14T03:12:39.307Z,1027.70
2019-05-14T03:13:36.097Z,1027.70
2019-05-14T03:14:39.282Z,1027.70
2019-05-14T03:15:38.882Z,1027.67
2019-05-14T03:16:36.324Z,1027.67
2019-05-14T03:17:36.053Z,1027.71
2019-05-14T03:18:39.417Z,1027.68
2019-05-14T03:19:36.057Z,1027.67
2019-05-14T03:20:38.718Z,1027.68
2019-05-14T03:21:39.306Z,1027.70
2019-05-14T03:22:47.148Z,1027.72
2019-05-14T03:23:39.257Z,1027.77
2019-05-14T03:24:39.401Z,1027.75
2019-05-14T03:25:35.978Z,1027.76
2019-05-14T03:26:39.482Z,1027.72
2019-05-14T03:27:35.954Z,1027.72
2019-05-14T03:28:39.507Z,1027.74
2019-05-14T03:29:39.363Z,1027.75
2019-05-14T03:30:35.912Z,1027.75
2019-05-14T03:31:35.899Z,1027.72
2019-05-14T03:32:41.673Z,1027.73
2019-05-14T03:33:43.046Z,1027.72
2019-05-14T03:34:42.578Z,1027.74
2019-05-14T03:35:44.083Z,1027.74
2019-05-14T03:36:42.324Z,1027.78
2019-05-14T03:37:39.145Z,1027.77
2019-05-14T03:38:35.829Z,1027.75
2019-05-14T03:39:35.812Z,1027.72
2019-05-14T03:40:35.842Z,1027.77
2019-05-14T03:41:35.786Z,1027.73
2019-05-14T03:42:35.776Z,1027.78
2019-05-14T03:43:38.922Z,1027.73
2019-05-14T03:44:35.757Z,1027.83
2019-05-14T03:45:38.861Z,1027.87
2019-05-14T03:46:46.075Z,1027.87
2019-05-14T03:47:39.383Z,1027.86
2019-05-14T03:48:35.710Z,1027.91
2019-05-14T03:49:35.704Z,1027.91
2019-05-14T03:50:38.719Z,1027.91
2019-05-14T03:51:35.679Z,1027.95
2019-05-14T03:52:35.667Z,1027.96
2019-05-14T03:53:52.321Z,1027.94
2019-05-14T03:54:36.652Z,1027.96
2019-05-14T03:55:35.662Z,1027.99
2019-05-14T03:56:35.624Z,1027.97
2019-05-14T03:57:35.611Z,1027.96
2019-05-14T03:58:39.126Z,1027.97
2019-05-14T03:59:35.845Z,1027.98
2019-05-14T04:00:38.857Z,1027.98
2019-05-14T04:01:35.592Z,1028.01
2019-05-14T04:02:38.947Z,1028.03
2019-05-14T04:03:35.545Z,1028.02
2019-05-14T04:04:35.535Z,1028.03
2019-05-14T04:05:35.554Z,1028.03
2019-05-14T04:06:35.514Z,1028.03
2019-05-14T04:07:35.510Z,1028.01
2019-05-14T04:08:38.922Z,1027.98
2019-05-14T04:09:35.479Z,1028.01
2019-05-14T04:10:35.492Z,1028.00
2019-05-14T04:11:35.460Z,1027.99
2019-05-14T04:12:35.451Z,1028.00
2019-05-14T04:13:35.438Z,1028.03
2019-05-14T04:14:35.424Z,1028.05
2019-05-14T04:15:35.438Z,1028.03
2019-05-14T04:16:35.407Z,1028.05
2019-05-14T04:17:38.874Z,1028.04
2019-05-14T04:18:39.803Z,1027.96
2019-05-14T04:19:39.150Z,1027.93
2019-05-14T04:20:35.371Z,1027.94
2019-05-14T04:21:35.378Z,1027.92
2019-05-14T04:22:35.339Z,1027.95
2019-05-14T04:23:35.328Z,1027.95
2019-05-14T04:24:37.066Z,1027.95
2019-05-14T04:25:38.995Z,1027.93
2019-05-14T04:26:53.428Z,1027.95
2019-05-14T04:27:39.802Z,1027.96
2019-05-14T04:28:35.270Z,1027.95
2019-05-14T04:29:35.262Z,1027.95
2019-05-14T04:30:35.255Z,1027.91
2019-05-14T04:31:35.265Z,1027.88
2019-05-14T04:32:35.301Z,1027.81
2019-05-14T04:33:35.222Z,1027.87
2019-05-14T04:34:35.205Z,1027.84
2019-05-14T04:35:35.195Z,1027.87
2019-05-14T04:36:35.207Z,1027.81
2019-05-14T04:37:35.178Z,1027.81
2019-05-14T04:38:35.162Z,1027.83
2019-05-14T04:39:35.151Z,1027.80
2019-05-14T04:40:35.139Z,1027.84
2019-05-14T04:41:35.157Z,1027.84
2019-05-14T04:42:35.127Z,1027.83
2019-05-14T04:43:35.109Z,1027.91
2019-05-14T04:44:35.101Z,1027.92
2019-05-14T04:45:35.084Z,1027.92
2019-05-14T04:46:35.103Z,1027.94
2019-05-14T04:47:37.449Z,1027.95
2019-05-14T04:48:38.622Z,1027.96
2019-05-14T04:49:39.532Z,1027.94
2019-05-14T04:50:35.032Z,1027.98
2019-05-14T04:51:35.048Z,1027.93
2019-05-14T04:52:35.016Z,1027.96
2019-05-14T04:53:34.998Z,1028.01
2019-05-14T04:54:35.009Z,1028.00
2019-05-14T04:55:34.973Z,1027.98
2019-05-14T04:56:34.964Z,1028.00
2019-05-14T04:57:34.981Z,1028.02
2019-05-14T04:58:34.938Z,1028.04
2019-05-14T04:59:34.927Z,1028.07
2019-05-14T05:00:34.918Z,1028.06
2019-05-14T05:01:34.907Z,1028.08
2019-05-14T05:02:34.921Z,1028.08
2019-05-14T05:03:34.881Z,1028.06
2019-05-14T05:04:34.871Z,1028.03
2019-05-14T05:05:34.860Z,1028.02
2019-05-14T05:06:34.850Z,1028.00
2019-05-14T05:07:34.863Z,1028.07
2019-05-14T05:08:34.831Z,1028.04
2019-05-14T05:09:34.823Z,1028.03
2019-05-14T05:10:34.804Z,1028.01
2019-05-14T05:11:34.795Z,1028.08
2019-05-14T05:12:34.808Z,1028.02
2019-05-14T05:13:34.770Z,1027.95
2019-05-14T05:14:34.760Z,1028.01
2019-05-14T05:15:34.750Z,1028.02
2019-05-14T05:16:34.741Z,1028.04
2019-05-14T05:17:46.648Z,1028.01
2019-05-14T05:18:35.719Z,1028.01
2019-05-14T05:19:34.705Z,1028.01
2019-05-14T05:20:34.698Z,1028.00
2019-05-14T05:21:34.683Z,1027.97
2019-05-14T05:22:34.695Z,1027.94
2019-05-14T05:23:34.664Z,1027.94
2019-05-14T05:24:34.650Z,1027.95
2019-05-14T05:25:34.637Z,1027.90
2019-05-14T05:26:34.629Z,1027.89
2019-05-14T05:27:34.642Z,1027.88
2019-05-14T05:28:34.606Z,1027.84
2019-05-14T05:29:34.599Z,1027.90
2019-05-14T05:30:34.584Z,1027.88
2019-05-14T05:31:34.579Z,1027.89
2019-05-14T05:32:34.594Z,1027.88
2019-05-14T05:33:34.551Z,1027.94
2019-05-14T05:34:34.540Z,1027.94
2019-05-14T05:35:34.533Z,1027.97
2019-05-14T05:36:34.520Z,1027.99
2019-05-14T05:37:34.508Z,1028.01
2019-05-14T05:38:34.521Z,1027.98
2019-05-14T05:39:34.484Z,1027.97
2019-05-14T05:40:34.475Z,1027.95
2019-05-14T05:41:34.464Z,1028.00
2019-05-14T05:42:34.481Z,1027.92
2019-05-14T05:43:34.441Z,1027.92
2019-05-14T05:44:34.433Z,1027.88
2019-05-14T05:45:34.420Z,1027.90
2019-05-14T05:46:34.409Z,1027.92
2019-05-14T05:47:34.400Z,1027.95
2019-05-14T05:48:34.410Z,1027.88
2019-05-14T05:49:34.374Z,1027.86
2019-05-14T05:50:34.369Z,1027.92
2019-05-14T05:51:34.351Z,1027.88
2019-05-14T05:52:34.340Z,1027.87
2019-05-14T05:53:34.361Z,1027.91
2019-05-14T05:54:34.323Z,1027.85
2019-05-14T05:55:34.313Z,1027.89
2019-05-14T05:56:34.294Z,1027.87
2019-05-14T05:57:34.288Z,1027.85
2019-05-14T05:58:34.295Z,1027.87
2019-05-14T05:59:34.273Z,1027.83
2019-05-14T06:00:34.285Z,1027.83
2019-05-14T06:01:44.956Z,1027.87
2019-05-14T06:02:35.225Z,1027.87
2019-05-14T06:03:34.239Z,1027.85
2019-05-14T06:04:34.202Z,1027.84
2019-05-14T06:05:34.190Z,1027.87
2019-05-14T06:06:34.178Z,1027.82
2019-05-14T06:07:34.168Z,1027.82
2019-05-14T06:08:34.184Z,1027.84
2019-05-14T06:09:34.147Z,1027.83
2019-05-14T06:10:34.133Z,1027.79
2019-05-14T06:11:34.121Z,1027.78
2019-05-14T06:12:34.114Z,1027.77
2019-05-14T06:13:34.127Z,1027.78
2019-05-14T06:14:34.091Z,1027.74
2019-05-14T06:15:44.535Z,1027.68
2019-05-14T06:16:35.079Z,1027.65
2019-05-14T06:17:34.058Z,1027.68
2019-05-14T06:18:34.630Z,1027.71
2019-05-14T06:19:34.054Z,1027.70
2019-05-14T06:20:34.026Z,1027.70
2019-05-14T06:21:34.011Z,1027.72
2019-05-14T06:22:34.001Z,1027.72
2019-05-14T06:23:33.985Z,1027.74
2019-05-14T06:24:34.000Z,1027.70
2019-05-14T06:25:33.969Z,1027.67
2019-05-14T06:26:33.948Z,1027.70
2019-05-14T06:27:33.937Z,1027.67
2019-05-14T06:28:33.929Z,1027.73
2019-05-14T06:29:33.939Z,1027.71
2019-05-14T06:30:33.902Z,1027.68
2019-05-14T06:31:33.891Z,1027.67
2019-05-14T06:32:33.881Z,1027.61
2019-05-14T06:33:33.871Z,1027.62
2019-05-14T06:34:33.886Z,1027.64
2019-05-14T06:35:33.847Z,1027.61
2019-05-14T06:36:33.838Z,1027.62
2019-05-14T06:37:33.824Z,1027.62
2019-05-14T06:38:33.812Z,1027.56
2019-05-14T06:39:33.828Z,1027.56
2019-05-14T06:40:33.792Z,1027.56
2019-05-14T06:41:33.780Z,1027.58
2019-05-14T06:42:33.770Z,1027.54
2019-05-14T06:43:33.757Z,1027.55
2019-05-14T06:44:33.772Z,1027.47
2019-05-14T06:45:33.733Z,1027.47
2019-05-14T06:46:33.720Z,1027.47
2019-05-14T06:47:33.718Z,1027.44
2019-05-14T06:48:34.898Z,1027.48
2019-05-14T06:49:33.713Z,1027.48
2019-05-14T06:50:33.678Z,1027.55
2019-05-14T06:51:33.666Z,1027.50
2019-05-14T06:52:33.658Z,1027.45
2019-05-14T06:53:33.644Z,1027.44
2019-05-14T06:54:33.659Z,1027.50
2019-05-14T06:55:33.627Z,1027.51
2019-05-14T06:56:33.609Z,1027.51
2019-05-14T06:57:33.599Z,1027.54
2019-05-14T06:58:33.594Z,1027.51
2019-05-14T06:59:33.577Z,1027.57
2019-05-14T07:00:33.589Z,1027.48
2019-05-14T07:01:33.555Z,1027.55
2019-05-14T07:02:33.544Z,1027.55
2019-05-14T07:03:33.531Z,1027.56
2019-05-14T07:04:33.521Z,1027.56
2019-05-14T07:05:33.534Z,1027.57
2019-05-14T07:06:33.496Z,1027.60
2019-05-14T07:07:33.521Z,1027.53
2019-05-14T07:08:33.476Z,1027.57
2019-05-14T07:09:33.466Z,1027.57
2019-05-14T07:10:33.476Z,1027.57
2019-05-14T07:11:33.441Z,1027.58
2019-05-14T07:12:33.437Z,1027.51
2019-05-14T07:13:33.418Z,1027.55
2019-05-14T07:14:33.406Z,1027.50
2019-05-14T07:15:33.421Z,1027.49
2019-05-14T07:16:33.392Z,1027.52
2019-05-14T07:17:33.378Z,1027.49
2019-05-14T07:18:45.470Z,1027.46
2019-05-14T07:19:34.358Z,1027.46
2019-05-14T07:20:33.367Z,1027.44
2019-05-14T07:21:33.328Z,1027.46
2019-05-14T07:22:33.318Z,1027.46
2019-05-14T07:23:33.306Z,1027.45
2019-05-14T07:24:33.294Z,1027.45
2019-05-14T07:25:33.307Z,1027.39
2019-05-14T07:26:33.272Z,1027.37
2019-05-14T07:27:33.263Z,1027.39
2019-05-14T07:28:33.250Z,1027.36
2019-05-14T07:29:33.238Z,1027.40
2019-05-14T07:30:33.257Z,1027.36
2019-05-14T07:31:33.217Z,1027.34
2019-05-14T07:32:33.204Z,1027.31
2019-05-14T07:33:33.194Z,1027.30
2019-05-14T07:34:33.184Z,1027.29
2019-05-14T07:35:33.195Z,1027.25
2019-05-14T07:36:33.161Z,1027.26
2019-05-14T07:37:33.148Z,1027.22
2019-05-14T07:38:33.138Z,1027.19
2019-05-14T07:39:33.127Z,1027.26
2019-05-14T07:40:33.145Z,1027.26
2019-05-14T07:41:33.111Z,1027.25
2019-05-14T07:42:33.093Z,1027.26
2019-05-14T07:43:33.109Z,1027.25
2019-05-14T07:44:33.069Z,1027.23
2019-05-14T07:45:33.556Z,1027.16
2019-05-14T07:46:33.047Z,1027.16
2019-05-14T07:47:33.050Z,1027.15
2019-05-14T07:48:33.041Z,1027.19
2019-05-14T07:49:33.015Z,1027.13
2019-05-14T07:50:33.030Z,1027.12
2019-05-14T07:51:32.997Z,1027.13
2019-05-14T07:52:32.982Z,1027.17
2019-05-14T07:53:38.203Z,1027.16
2019-05-14T07:54:33.958Z,1027.13
2019-05-14T07:55:32.973Z,1027.17
2019-05-14T07:56:32.942Z,1027.13
2019-05-14T07:57:32.926Z,1027.11
2019-05-14T07:58:32.911Z,1027.06
2019-05-14T07:59:32.901Z,1027.07
2019-05-14T08:00:32.912Z,1027.07
2019-05-14T08:01:32.877Z,1027.08
2019-05-14T08:02:32.870Z,1027.06
2019-05-14T08:03:32.854Z,1027.03
2019-05-14T08:04:32.843Z,1027.02
2019-05-14T08:05:32.843Z,1026.98
2019-05-14T08:06:32.845Z,1027.06
2019-05-14T08:07:32.823Z,1027.03
2019-05-14T08:08:32.797Z,1027.04
2019-05-14T08:09:32.785Z,1027.03
2019-05-14T08:10:32.782Z,1026.97
2019-05-14T08:11:32.788Z,1026.98
2019-05-14T08:12:32.756Z,1026.95
2019-05-14T08:13:32.754Z,1026.97
2019-05-14T08:14:41.797Z,1026.92
2019-05-14T08:15:33.718Z,1026.97
2019-05-14T08:16:32.732Z,1026.97
2019-05-14T08:17:32.695Z,1026.97
2019-05-14T08:18:32.686Z,1026.93
2019-05-14T08:19:34.495Z,1026.95
2019-05-14T08:20:32.663Z,1026.95
2019-05-14T08:21:32.677Z,1026.90
2019-05-14T08:22:32.640Z,1026.84
2019-05-14T08:23:32.638Z,1026.82
2019-05-14T08:24:32.634Z,1026.83
2019-05-14T08:25:32.609Z,1026.83
2019-05-14T08:26:32.618Z,1026.77
2019-05-14T08:27:32.584Z,1026.77
2019-05-14T08:28:32.571Z,1026.79
2019-05-14T08:29:32.560Z,1026.78
2019-05-14T08:30:32.550Z,1026.80
2019-05-14T08:31:32.567Z,1026.82
2019-05-14T08:32:32.527Z,1026.77
2019-05-14T08:33:32.514Z,1026.78
2019-05-14T08:34:32.504Z,1026.73
2019-05-14T08:35:34.032Z,1026.76
2019-05-14T08:36:32.505Z,1026.75
2019-05-14T08:37:32.469Z,1026.74
2019-05-14T08:38:32.463Z,1026.70
2019-05-14T08:39:32.449Z,1026.74
2019-05-14T08:40:32.437Z,1026.65
2019-05-14T08:41:32.437Z,1026.64
2019-05-14T08:42:34.042Z,1026.63
2019-05-14T08:43:32.401Z,1026.66
2019-05-14T08:44:32.389Z,1026.66
2019-05-14T08:45:32.379Z,1026.62
2019-05-14T08:46:32.367Z,1026.63
2019-05-14T08:47:32.389Z,1026.62
2019-05-14T08:48:32.348Z,1026.60
2019-05-14T08:49:41.901Z,1026.60
2019-05-14T08:50:33.321Z,1026.58
2019-05-14T08:51:32.325Z,1026.58
2019-05-14T08:52:32.324Z,1026.60
2019-05-14T08:53:32.287Z,1026.62
2019-05-14T08:54:32.276Z,1026.65
2019-05-14T08:55:32.272Z,1026.58
2019-05-14T08:56:32.257Z,1026.63
2019-05-14T08:57:32.336Z,1026.58
2019-05-14T08:58:32.231Z,1026.58
2019-05-14T08:59:32.219Z,1026.56
2019-05-14T09:00:32.210Z,1026.56
2019-05-14T09:01:32.202Z,1026.55
2019-05-14T09:02:32.190Z,1026.59
2019-05-14T09:03:32.199Z,1026.52
2019-05-14T09:04:32.164Z,1026.59
2019-05-14T09:05:32.152Z,1026.61
2019-05-14T09:06:32.142Z,1026.57
2019-05-14T09:07:32.131Z,1026.56
2019-05-14T09:08:32.141Z,1026.58
2019-05-14T09:09:32.107Z,1026.54
2019-05-14T09:10:32.095Z,1026.56
2019-05-14T09:11:35.308Z,1026.54
2019-05-14T09:12:32.072Z,1026.53
2019-05-14T09:13:32.091Z,1026.49
2019-05-14T09:14:32.052Z,1026.48
2019-05-14T09:15:32.039Z,1026.54
2019-05-14T09:16:43.188Z,1026.46
2019-05-14T09:17:33.014Z,1026.53
2019-05-14T09:18:32.029Z,1026.49
2019-05-14T09:19:31.994Z,1026.46
2019-05-14T09:20:32.050Z,1026.46
2019-05-14T09:21:31.984Z,1026.47
2019-05-14T09:22:31.961Z,1026.47
2019-05-14T09:23:31.972Z,1026.50
2019-05-14T09:24:31.936Z,1026.48
2019-05-14T09:25:31.938Z,1026.44
2019-05-14T09:26:31.913Z,1026.41
2019-05-14T09:27:31.903Z,1026.35
2019-05-14T09:28:31.930Z,1026.32
2019-05-14T09:29:31.881Z,1026.32
2019-05-14T09:30:31.869Z,1026.37
2019-05-14T09:31:31.858Z,1026.31
2019-05-14T09:32:31.846Z,1026.27
2019-05-14T09:33:31.901Z,1026.32
2019-05-14T09:34:31.828Z,1026.24
2019-05-14T09:35:31.814Z,1026.27
2019-05-14T09:36:31.804Z,1026.25
2019-05-14T09:37:31.793Z,1026.21
2019-05-14T09:38:31.804Z,1026.22
2019-05-14T09:39:31.769Z,1026.22
2019-05-14T09:40:31.756Z,1026.18
2019-05-14T09:41:31.746Z,1026.15
2019-05-14T09:42:31.736Z,1026.11
2019-05-14T09:43:31.726Z,1026.14
2019-05-14T09:44:31.738Z,1026.12
2019-05-14T09:45:31.701Z,1026.02
2019-05-14T09:46:31.690Z,1025.99
2019-05-14T09:47:31.694Z,1025.98
2019-05-14T09:48:31.670Z,1025.98
2019-05-14T09:49:31.679Z,1025.92
2019-05-14T09:50:31.643Z,1025.92
2019-05-14T09:51:31.631Z,1025.93
2019-05-14T09:52:31.627Z,1025.89
2019-05-14T09:53:31.608Z,1025.94
2019-05-14T09:54:31.621Z,1025.91
2019-05-14T09:55:31.587Z,1025.95
2019-05-14T09:56:31.575Z,1025.83
2019-05-14T09:57:31.572Z,1025.81
2019-05-14T09:58:31.551Z,1025.79
2019-05-14T09:59:31.565Z,1025.73
2019-05-14T10:00:31.530Z,1025.69
2019-05-14T10:01:31.517Z,1025.70
2019-05-14T10:02:31.510Z,1025.76
2019-05-14T10:03:31.504Z,1025.75
2019-05-14T10:04:31.511Z,1025.77
2019-05-14T10:05:31.473Z,1025.70
2019-05-14T10:06:31.808Z,1025.73
2019-05-14T10:07:31.449Z,1025.78
2019-05-14T10:08:31.440Z,1025.68
2019-05-14T10:09:31.452Z,1025.76
2019-05-14T10:10:31.420Z,1025.73
2019-05-14T10:11:31.406Z,1025.74
2019-05-14T10:12:31.416Z,1025.79
2019-05-14T10:13:31.383Z,1025.81
2019-05-14T10:14:31.402Z,1025.78
2019-05-14T10:15:31.358Z,1025.78
2019-05-14T10:16:31.348Z,1025.77
2019-05-14T10:17:31.338Z,1025.77
2019-05-14T10:18:31.324Z,1025.70
2019-05-14T10:19:31.339Z,1025.74
2019-05-14T10:20:41.000Z,1025.75
2019-05-14T10:21:32.290Z,1025.75
2019-05-14T10:22:31.278Z,1025.76
2019-05-14T10:23:31.271Z,1025.80
2019-05-14T10:24:31.259Z,1025.72
2019-05-14T10:25:31.270Z,1025.77
2019-05-14T10:26:31.242Z,1025.78
2019-05-14T10:27:31.230Z,1025.79
2019-05-14T10:28:31.360Z,1025.79
2019-05-14T10:29:31.201Z,1025.76
2019-05-14T10:30:31.218Z,1025.81
2019-05-14T10:31:31.178Z,1025.70
2019-05-14T10:32:31.169Z,1025.72
2019-05-14T10:33:31.154Z,1025.70
2019-05-14T10:34:31.143Z,1025.70
2019-05-14T10:35:31.160Z,1025.66
2019-05-14T10:36:31.120Z,1025.66
2019-05-14T10:37:31.109Z,1025.68
2019-05-14T10:38:31.211Z,1025.60
2019-05-14T10:39:31.086Z,1025.64
2019-05-14T10:40:31.102Z,1025.65
2019-05-14T10:41:31.064Z,1025.62
2019-05-14T10:42:31.058Z,1025.66
2019-05-14T10:43:31.050Z,1025.63
2019-05-14T10:44:31.065Z,1025.56
2019-05-14T10:45:31.043Z,1025.55
2019-05-14T10:46:31.007Z,1025.56
2019-05-14T10:47:31.007Z,1025.51
2019-05-14T10:48:30.984Z,1025.47
2019-05-14T10:49:30.973Z,1025.57
2019-05-14T10:50:30.988Z,1025.56
2019-05-14T10:51:30.957Z,1025.58
2019-05-14T10:52:30.939Z,1025.61
2019-05-14T10:53:30.931Z,1025.60
2019-05-14T10:54:30.960Z,1025.65
2019-05-14T10:55:30.928Z,1025.58
2019-05-14T10:56:30.894Z,1025.60
2019-05-14T10:57:30.890Z,1025.60
2019-05-14T10:58:30.872Z,1025.67
2019-05-14T10:59:30.859Z,1025.60
2019-05-14T11:00:30.875Z,1025.66
2019-05-14T11:01:30.839Z,1025.58
2019-05-14T11:02:30.837Z,1025.62
2019-05-14T11:03:30.819Z,1025.66
2019-05-14T11:04:34.258Z,1025.56
2019-05-14T11:05:30.817Z,1025.50
2019-05-14T11:06:30.786Z,1025.52
2019-05-14T11:07:30.774Z,1025.56
2019-05-14T11:08:30.759Z,1025.46
2019-05-14T11:09:30.747Z,1025.46
2019-05-14T11:10:30.741Z,1025.42
2019-05-14T11:11:30.747Z,1025.37
2019-05-14T11:12:30.717Z,1025.36
2019-05-14T11:13:30.704Z,1025.39
2019-05-14T11:14:31.652Z,1025.40
2019-05-14T11:15:30.679Z,1025.37
2019-05-14T11:16:30.693Z,1025.37
2019-05-14T11:17:30.656Z,1025.43
2019-05-14T11:18:30.645Z,1025.40
2019-05-14T11:19:30.638Z,1025.33
2019-05-14T11:20:31.320Z,1025.21
2019-05-14T11:21:30.635Z,1025.29
2019-05-14T11:22:30.600Z,1025.27
2019-05-14T11:23:30.590Z,1025.24
2019-05-14T11:24:30.605Z,1025.20
2019-05-14T11:25:30.565Z,1025.19
2019-05-14T11:26:30.581Z,1025.14
2019-05-14T11:27:30.545Z,1025.10
2019-05-14T11:28:30.531Z,1025.05
2019-05-14T11:29:30.522Z,1024.98
2019-05-14T11:30:30.515Z,1025.00
2019-05-14T11:31:34.070Z,1024.92
2019-05-14T11:32:30.487Z,1024.88
2019-05-14T11:33:30.474Z,1024.89
2019-05-14T11:34:30.468Z,1024.88
2019-05-14T11:35:30.452Z,1024.83
2019-05-14T11:36:30.470Z,1024.74
2019-05-14T11:37:30.433Z,1024.70
2019-05-14T11:38:37.294Z,1024.75
2019-05-14T11:39:31.408Z,1024.82
2019-05-14T11:40:30.396Z,1024.72
2019-05-14T11:41:30.411Z,1024.62
2019-05-14T11:42:31.468Z,1024.62
2019-05-14T11:43:30.368Z,1024.61
2019-05-14T11:44:30.352Z,1024.61
2019-05-14T11:45:30.345Z,1024.69
2019-05-14T11:46:44.156Z,1024.62
2019-05-14T11:47:31.343Z,1024.65
2019-05-14T11:48:30.306Z,1024.57
2019-05-14T11:49:30.299Z,1024.31
2019-05-14T11:50:30.303Z,1024.45
2019-05-14T11:51:59.032Z,1024.58
2019-05-14T11:52:31.291Z,1024.55
2019-05-14T11:53:30.251Z,1024.53
2019-05-14T11:54:30.243Z,1024.56
2019-05-14T11:55:30.236Z,1024.62
2019-05-14T11:56:30.217Z,1024.64
2019-05-14T11:57:30.230Z,1024.65
2019-05-14T11:58:30.197Z,1024.57
2019-05-14T11:59:30.184Z,1024.62
2019-05-14T12:00:30.172Z,1024.57
2019-05-14T12:01:30.167Z,1024.47
2019-05-14T12:02:30.184Z,1024.50
2019-05-14T12:03:30.139Z,1024.46
2019-05-14T12:04:30.131Z,1024.35
2019-05-14T12:05:30.601Z,1024.31